Time;durP1;ratioP1;P1;durP2;ratioP2;P2;SDS_P1;SDS_P2;PMS_P1;PMS_P2;Temp;Humidity;BMP_temperature;BMP_pressure;BME280_temperature;BME280_humidity;BME280_pressure;Samples;Min_cycle;Max_cycle;Signal;HPM_P1;HPM_P2
2021/09/28 00:00:00;;;;;;;10.57;5.77;;;10.90;99.90;10.70;97110.00;;;;5111015;27;20695;-66
2021/09/28 00:02:49;;;;;;;7.13;5.63;;;10.90;99.90;10.70;97105.00;;;;5107996;27;20626;-66
2021/09/28 00:05:39;;;;;;;7.37;4.97;;;11.00;99.90;10.80;97108.00;;;;5122888;27;20189;-66
2021/09/28 00:08:28;;;;;;;6.60;5.30;;;11.00;99.90;10.60;97111.00;;;;5113293;27;20560;-65
2021/09/28 00:11:17;;;;;;;6.60;5.77;;;11.00;99.90;10.80;97098.00;;;;5114227;27;20232;-65
2021/09/28 00:14:06;;;;;;;6.07;5.30;;;11.00;99.90;10.60;97100.00;;;;5125597;27;20213;-65
2021/09/28 00:16:55;;;;;;;7.47;5.47;;;11.00;99.90;10.70;97100.00;;;;5124742;27;20202;-64
2021/09/28 00:19:44;;;;;;;7.90;4.73;;;11.00;99.90;10.80;97115.00;;;;5116484;27;20205;-66
2021/09/28 00:22:35;;;;;;;7.03;4.80;;;11.00;99.90;10.60;97101.00;;;;5107208;27;20241;-66
2021/09/28 00:25:24;;;;;;;6.97;4.93;;;11.00;99.90;10.50;97100.00;;;;5116095;27;20586;-65
2021/09/28 00:28:13;;;;;;;6.90;4.80;;;11.00;99.90;10.50;97096.00;;;;5111721;28;20207;-66
2021/09/28 00:31:02;;;;;;;7.83;5.10;;;10.90;99.90;10.40;97095.00;;;;5126144;28;20603;-66
2021/09/28 00:33:51;;;;;;;5.07;4.30;;;10.80;99.90;10.40;97109.00;;;;5106786;28;20571;-65
2021/09/28 00:36:40;;;;;;;6.63;5.23;;;10.80;99.90;10.50;97091.00;;;;5120203;28;20696;-65
2021/09/28 00:39:30;;;;;;;6.03;4.97;;;10.80;99.90;10.60;97089.00;;;;5120267;28;20201;-65
2021/09/28 00:42:19;;;;;;;7.23;5.40;;;10.80;99.90;10.40;97093.00;;;;5125867;28;20225;-65
2021/09/28 00:45:09;;;;;;;6.47;4.50;;;10.80;99.90;10.50;97081.00;;;;5126204;28;20206;-64
2021/09/28 00:47:58;;;;;;;5.53;4.50;;;10.80;99.90;10.40;97084.00;;;;5126371;28;20216;-65
2021/09/28 00:50:47;;;;;;;8.40;4.80;;;10.80;99.90;10.40;97087.00;;;;5125354;28;20244;-66
2021/09/28 00:53:38;;;;;;;8.13;5.57;;;10.70;99.90;10.30;97087.00;;;;5116049;28;20206;-65
2021/09/28 00:56:28;;;;;;;6.10;5.00;;;10.70;99.90;10.20;97081.00;;;;5111645;28;20205;-65
2021/09/28 00:59:17;;;;;;;8.50;5.83;;;10.70;99.90;10.20;97086.00;;;;5111335;28;20201;-65
2021/09/28 01:02:08;;;;;;;6.57;5.17;;;10.60;99.90;10.40;97085.00;;;;5111585;28;20219;-64
2021/09/28 01:05:02;;;;;;;6.97;5.17;;;10.60;99.90;10.40;97082.00;;;;5116195;28;20235;-65
2021/09/28 01:07:51;;;;;;;5.87;4.73;;;10.60;99.90;10.20;97083.00;;;;5119127;28;20203;-65
2021/09/28 01:10:39;;;;;;;6.03;5.40;;;10.60;99.90;10.20;97084.00;;;;5120038;28;20210;-65
2021/09/28 01:13:30;;;;;;;6.40;5.10;;;10.60;99.90;10.20;97088.00;;;;5125791;28;20206;-64
2021/09/28 01:16:19;;;;;;;10.83;6.07;;;10.60;99.90;10.20;97094.00;;;;5113773;28;20233;-65
2021/09/28 01:19:08;;;;;;;9.40;6.30;;;10.60;99.90;10.10;97094.00;;;;5125997;27;20202;-65
2021/09/28 01:21:59;;;;;;;5.70;5.10;;;10.50;99.90;10.00;97098.00;;;;5128181;27;20750;-65
2021/09/28 01:24:50;;;;;;;6.63;4.80;;;10.50;99.90;10.10;97082.00;;;;5130077;27;20711;-65
2021/09/28 01:27:39;;;;;;;8.03;5.10;;;10.50;99.90;10.10;97087.00;;;;5118298;27;20212;-64
2021/09/28 01:30:28;;;;;;;6.90;5.53;;;10.40;99.90;10.10;97096.00;;;;5114275;27;20206;-65
2021/09/28 01:33:17;;;;;;;6.23;4.83;;;10.40;99.90;10.20;97092.00;;;;5116123;27;20230;-65
2021/09/28 01:36:07;;;;;;;5.60;4.83;;;10.40;99.90;10.20;97091.00;;;;5116916;27;20225;-65
2021/09/28 01:38:57;;;;;;;6.60;5.43;;;10.40;99.90;10.20;97095.00;;;;5117458;27;20202;-65
2021/09/28 01:41:46;;;;;;;6.27;5.67;;;10.50;99.90;10.30;97084.00;;;;5129341;27;20237;-64
2021/09/28 01:44:35;;;;;;;6.43;5.33;;;10.50;99.90;10.20;97082.00;;;;5128296;27;20209;-64
2021/09/28 01:47:24;;;;;;;5.83;4.70;;;10.50;99.90;10.20;97094.00;;;;5129354;27;20233;-64
2021/09/28 01:50:14;;;;;;;6.97;5.77;;;10.40;99.90;10.00;97096.00;;;;5128296;27;20232;-64
2021/09/28 01:53:03;;;;;;;9.97;5.17;;;10.40;99.90;9.70;97103.00;;;;5129875;27;20200;-65
2021/09/28 01:55:54;;;;;;;5.60;5.00;;;10.30;99.90;9.60;97109.00;;;;5124523;27;20221;-64
2021/09/28 01:58:43;;;;;;;6.30;4.77;;;10.20;99.90;9.70;97109.00;;;;5129414;27;20198;-65
2021/09/28 02:01:32;;;;;;;5.47;4.53;;;10.20;99.90;9.70;97108.00;;;;5114829;27;20232;-65
2021/09/28 02:04:21;;;;;;;11.93;5.47;;;10.10;99.90;9.90;97108.00;;;;5126143;27;20206;-64
2021/09/28 02:07:10;;;;;;;9.63;5.70;;;10.20;99.90;10.10;97115.00;;;;5120933;27;20205;-65
2021/09/28 02:09:59;;;;;;;6.17;5.03;;;10.20;99.90;10.10;97106.00;;;;5108325;28;20202;-65
2021/09/28 02:12:50;;;;;;;7.27;5.50;;;10.30;99.90;10.10;97108.00;;;;5116495;27;20626;-65
2021/09/28 02:15:39;;;;;;;7.33;5.63;;;10.40;99.90;9.80;97112.00;;;;5127688;27;20226;-65
2021/09/28 02:18:28;;;;;;;5.97;5.37;;;10.30;99.90;9.90;97096.00;;;;5129013;27;20216;-65
2021/09/28 02:21:17;;;;;;;6.63;5.50;;;10.20;99.90;10.00;97104.00;;;;5127622;27;20218;-65
2021/09/28 02:24:06;;;;;;;5.43;4.73;;;10.30;99.90;9.80;97103.00;;;;5128874;27;20202;-65
2021/09/28 02:26:55;;;;;;;7.30;5.70;;;10.30;99.90;9.90;97105.00;;;;5128080;27;20209;-65
2021/09/28 02:29:46;;;;;;;6.50;5.03;;;10.20;99.90;10.00;97098.00;;;;5128242;27;20214;-65
2021/09/28 02:32:35;;;;;;;6.43;5.20;;;10.30;99.90;9.80;97095.00;;;;5126695;27;20218;-65
2021/09/28 02:35:25;;;;;;;4.43;4.03;;;10.20;99.90;9.60;97100.00;;;;5121215;27;20225;-65
2021/09/28 02:38:14;;;;;;;6.60;4.37;;;10.10;99.90;9.60;97096.00;;;;5124750;27;20197;-65
2021/09/28 02:41:03;;;;;;;7.50;4.80;;;10.00;99.90;9.70;97097.00;;;;5127463;27;20711;-65
2021/09/28 02:43:52;;;;;;;6.10;5.10;;;10.00;99.90;9.70;97100.00;;;;5116726;27;20673;-64
2021/09/28 02:46:42;;;;;;;7.03;5.33;;;10.00;99.90;9.70;97110.00;;;;5127499;27;20202;-64
2021/09/28 02:49:31;;;;;;;9.13;6.03;;;10.00;99.90;9.50;97105.00;;;;5127986;27;20581;-64
2021/09/28 02:52:20;;;;;;;9.20;5.07;;;10.00;99.90;9.40;97116.00;;;;5127654;27;20240;-64
2021/09/28 02:55:10;;;;;;;5.77;4.97;;;9.90;99.90;9.40;97109.00;;;;5114684;27;20694;-65
2021/09/28 02:57:59;;;;;;;7.33;5.27;;;9.90;99.90;9.60;97106.00;;;;5127717;27;20229;-64
2021/09/28 03:00:48;;;;;;;6.50;5.53;;;9.90;99.90;9.70;97108.00;;;;5126771;27;20218;-65
2021/09/28 03:03:38;;;;;;;5.70;4.47;;;9.90;99.90;9.50;97098.00;;;;5124578;27;20209;-65
2021/09/28 03:06:27;;;;;;;6.20;4.37;;;9.90;99.90;9.30;97102.00;;;;5118157;27;20194;-64
2021/09/28 03:09:17;;;;;;;6.40;5.53;;;9.80;99.90;9.40;97108.00;;;;5107889;27;20587;-64
2021/09/28 03:12:07;;;;;;;5.70;5.20;;;9.80;99.90;9.50;97106.00;;;;5108219;27;20230;-64
2021/09/28 03:14:55;;;;;;;11.70;5.10;;;9.80;99.90;9.70;97103.00;;;;5128012;27;20206;-64
2021/09/28 03:17:45;;;;;;;7.37;6.37;;;9.80;99.90;9.60;97109.00;;;;5125719;27;20210;-64
2021/09/28 03:20:36;;;;;;;13.23;4.87;;;9.90;99.90;9.30;97100.00;;;;5112069;27;20202;-64
2021/09/28 03:23:25;;;;;;;6.97;5.17;;;9.80;99.90;9.30;97100.00;;;;5127772;27;20198;-64
2021/09/28 03:26:13;;;;;;;6.60;5.23;;;9.70;99.90;9.40;97107.00;;;;5127044;27;20206;-64
2021/09/28 03:29:02;;;;;;;9.27;5.67;;;9.70;99.90;9.40;97102.00;;;;5114497;27;20251;-63
2021/09/28 03:31:51;;;;;;;9.43;5.70;;;9.70;99.90;9.40;97107.00;;;;5126289;27;20232;-64
2021/09/28 03:34:40;;;;;;;6.37;5.40;;;9.70;99.90;9.40;97108.00;;;;5121578;27;20445;-64
2021/09/28 03:37:31;;;;;;;7.40;5.63;;;9.70;99.90;9.70;97103.00;;;;5118091;27;20221;-64
2021/09/28 03:40:20;;;;;;;7.37;5.63;;;9.80;99.90;9.70;97110.00;;;;5123098;27;20567;-64
2021/09/28 03:43:09;;;;;;;8.87;5.50;;;9.90;99.90;9.40;97110.00;;;;5113588;27;20218;-64
2021/09/28 03:45:58;;;;;;;8.47;5.43;;;9.80;99.90;9.40;97103.00;;;;5125848;27;20205;-64
2021/09/28 03:48:47;;;;;;;7.13;5.47;;;9.80;99.90;9.40;97102.00;;;;5126559;27;20198;-64
2021/09/28 03:51:36;;;;;;;9.37;5.73;;;9.80;99.90;9.40;97113.00;;;;5112964;27;20237;-64
2021/09/28 03:54:26;;;;;;;5.73;5.13;;;9.70;99.90;9.40;97119.00;;;;5127179;27;20209;-64
2021/09/28 03:57:15;;;;;;;6.00;5.00;;;9.70;99.90;9.20;97116.00;;;;5125823;27;20226;-64
2021/09/28 04:00:06;;;;;;;7.47;4.40;;;9.70;99.90;9.20;97118.00;;;;5116485;27;20224;-64
2021/09/28 04:02:55;;;;;;;9.00;5.97;;;9.60;99.90;9.20;97119.00;;;;5121710;27;20273;-64
2021/09/28 04:05:44;;;;;;;7.93;4.90;;;9.60;99.90;9.40;97126.00;;;;5112092;27;20648;-63
2021/09/28 04:08:33;;;;;;;6.27;5.53;;;9.60;99.90;9.70;97125.00;;;;5113425;27;20211;-64
2021/09/28 04:11:23;;;;;;;8.77;5.90;;;9.70;99.90;9.80;97122.00;;;;5113210;27;20226;-64
2021/09/28 04:14:12;;;;;;;7.47;5.50;;;9.80;99.90;9.70;97127.00;;;;5126965;27;20197;-65
2021/09/28 04:17:01;;;;;;;5.90;5.37;;;9.80;99.90;9.60;97118.00;;;;5126056;27;20610;-64
2021/09/28 04:19:50;;;;;;;5.83;4.77;;;9.80;99.90;9.30;97134.00;;;;5126268;27;20206;-64
2021/09/28 04:22:39;;;;;;;6.87;4.77;;;9.70;99.90;9.20;97122.00;;;;5125811;27;20236;-64
2021/09/28 04:25:28;;;;;;;7.60;4.77;;;9.70;99.90;9.00;97125.00;;;;5112731;28;20691;-64
2021/09/28 04:28:19;;;;;;;7.47;4.83;;;9.60;99.90;9.00;97122.00;;;;5121611;27;20715;-64
2021/09/28 04:31:09;;;;;;;6.13;5.40;;;9.50;99.90;9.00;97129.00;;;;5117535;28;20566;-64
2021/09/28 04:33:58;;;;;;;8.50;5.63;;;9.50;99.90;9.00;97135.00;;;;5114080;28;20208;-65
2021/09/28 04:36:47;;;;;;;6.23;5.43;;;9.40;99.90;9.10;97120.00;;;;5123318;28;20222;-65
2021/09/28 04:39:37;;;;;;;8.30;5.27;;;9.40;99.90;9.10;97119.00;;;;5124063;28;20229;-64
2021/09/28 04:42:25;;;;;;;7.20;6.07;;;10.20;99.90;8.80;97129.00;;;;5126364;28;20639;-65
2021/09/28 04:45:16;;;;;;;6.50;4.90;;;9.40;99.90;8.90;97121.00;;;;5106325;28;20871;-64
2021/09/28 04:48:05;;;;;;;9.27;5.77;;;9.40;99.90;9.00;97135.00;;;;5109090;28;20728;-63
2021/09/28 04:50:54;;;;;;;9.33;5.93;;;9.40;99.90;9.20;97133.00;;;;5125001;28;20240;-65
2021/09/28 04:53:43;;;;;;;8.20;5.87;;;9.40;99.90;9.50;97141.00;;;;5115885;27;20203;-65
2021/09/28 04:56:32;;;;;;;6.43;5.20;;;9.50;99.90;9.50;97141.00;;;;5123756;27;20234;-65
2021/09/28 04:59:21;;;;;;;7.37;5.63;;;9.60;99.90;9.40;97145.00;;;;5126400;27;20202;-64
2021/09/28 05:02:12;;;;;;;6.00;4.67;;;9.70;99.90;9.60;97146.00;;;;5116902;27;20264;-64
2021/09/28 05:05:00;;;;;;;6.40;4.73;;;9.70;99.90;9.70;97139.00;;;;5119675;27;20198;-64
2021/09/28 05:07:49;;;;;;;10.87;6.20;;;9.70;99.90;9.70;97145.00;;;;5121087;27;20225;-65
2021/09/28 05:10:39;;;;;;;8.57;6.17;;;9.80;99.90;9.50;97142.00;;;;5120632;27;20558;-64
2021/09/28 05:13:28;;;;;;;7.60;5.20;;;9.90;99.90;9.50;97146.00;;;;5122130;27;20351;-64
2021/09/28 05:16:18;;;;;;;8.10;6.10;;;9.80;99.90;9.40;97143.00;;;;5129231;27;20736;-64
2021/09/28 05:19:09;;;;;;;7.77;5.40;;;9.80;99.90;9.60;97153.00;;;;5128738;27;20233;-65
2021/09/28 05:21:58;;;;;;;7.17;5.20;;;9.80;99.90;9.50;97153.00;;;;5126808;27;20585;-64
2021/09/28 05:24:47;;;;;;;5.90;5.07;;;9.80;99.90;9.30;97148.00;;;;5122024;27;20202;-64
2021/09/28 05:27:36;;;;;;;6.37;5.50;;;9.80;99.90;9.00;97148.00;;;;5129781;27;20213;-65
2021/09/28 05:30:25;;;;;;;8.23;6.63;;;9.60;99.90;9.10;97147.00;;;;5129366;27;20198;-64
2021/09/28 05:33:15;;;;;;;8.30;5.07;;;9.60;99.90;9.10;97151.00;;;;5129822;27;20194;-65
2021/09/28 05:36:06;;;;;;;5.67;5.03;;;9.50;99.90;9.30;97154.00;;;;5110756;27;20673;-65
2021/09/28 05:38:55;;;;;;;6.97;5.57;;;9.60;99.90;9.60;97177.00;;;;5116877;27;20287;-64
2021/09/28 05:41:44;;;;;;;6.70;5.70;;;9.60;99.90;9.50;97163.00;;;;5120104;27;20599;-64
2021/09/28 05:44:33;;;;;;;7.83;5.23;;;9.70;99.90;9.50;97165.00;;;;5122144;27;20198;-65
2021/09/28 05:47:22;;;;;;;9.97;7.13;;;9.80;99.90;9.50;97165.00;;;;5129224;27;20194;-65
2021/09/28 05:50:11;;;;;;;5.43;4.90;;;9.80;99.90;9.50;97164.00;;;;5106830;28;20711;-64
2021/09/28 05:53:06;;;;;;;6.30;5.50;;;9.80;99.90;9.50;97162.00;;;;5112834;27;20210;-64
2021/09/28 05:55:56;;;;;;;6.30;5.60;;;9.80;99.90;9.80;97168.00;;;;5124470;27;20198;-65
2021/09/28 05:58:45;;;;;;;8.63;5.73;;;9.90;99.90;9.90;97169.00;;;;5118449;27;20257;-64
2021/09/28 06:01:34;;;;;;;6.33;5.17;;;10.00;99.90;10.00;97163.00;;;;5113405;27;20221;-65
2021/09/28 06:04:23;;;;;;;6.90;5.57;;;10.10;99.90;10.30;97162.00;;;;5125494;27;20202;-64
2021/09/28 06:07:14;;;;;;;6.07;5.47;;;10.20;99.90;10.10;97163.00;;;;5119865;27;20561;-64
2021/09/28 06:10:05;;;;;;;9.10;5.87;;;10.30;99.90;10.10;97164.00;;;;5118308;27;20194;-65
2021/09/28 06:12:54;;;;;;;6.40;5.63;;;10.40;99.90;10.30;97161.00;;;;5116835;27;20205;-64
2021/09/28 06:15:43;;;;;;;8.37;6.03;;;10.40;99.90;10.60;97166.00;;;;5114149;27;20206;-64
2021/09/28 06:18:32;;;;;;;8.17;4.87;;;10.50;99.90;10.70;97162.00;;;;5128348;27;20258;-65
2021/09/28 06:21:22;;;;;;;5.00;4.50;;;10.70;99.90;10.80;97156.00;;;;5127971;27;20233;-64
2021/09/28 06:24:11;;;;;;;7.97;5.30;;;10.80;99.90;11.00;97162.00;;;;5128979;27;20202;-66
2021/09/28 06:27:02;;;;;;;7.00;5.37;;;10.90;99.90;11.20;97168.00;;;;5126880;27;20201;-65
2021/09/28 06:29:52;;;;;;;6.30;5.23;;;11.10;99.90;11.40;97165.00;;;;5127969;27;20573;-65
2021/09/28 06:32:41;;;;;;;6.97;4.53;;;11.30;99.90;11.30;97164.00;;;;5127927;27;20218;-65
2021/09/28 06:35:30;;;;;;;6.23;5.17;;;11.30;99.90;11.40;97169.00;;;;5120113;27;20677;-66
2021/09/28 06:38:19;;;;;;;5.63;3.80;;;11.40;99.90;11.40;97160.00;;;;5123112;27;20225;-66
2021/09/28 06:41:07;;;;;;;6.33;4.53;;;11.50;99.90;11.80;97162.00;;;;5123285;27;20214;-65
2021/09/28 06:43:59;;;;;;;7.50;5.53;;;11.60;99.90;12.00;97159.00;;;;5116225;27;20198;-66
2021/09/28 06:46:48;;;;;;;7.00;5.27;;;11.70;99.90;12.20;97169.00;;;;5121332;27;20206;-65
2021/09/28 06:49:37;;;;;;;6.07;4.37;;;11.90;99.90;12.30;97163.00;;;;5126512;27;20232;-63
2021/09/28 06:52:26;;;;;;;5.33;4.03;;;12.10;99.90;12.20;97169.00;;;;5127389;27;20225;-64
2021/09/28 06:55:15;;;;;;;4.90;4.43;;;12.20;99.90;12.00;97159.00;;;;5127493;27;20202;-64
2021/09/28 06:58:04;;;;;;;4.73;4.30;;;12.20;99.90;11.90;97164.00;;;;5128000;27;20232;-65
2021/09/28 07:00:55;;;;;;;4.73;4.27;;;12.20;99.90;11.80;97166.00;;;;5127392;27;20229;-67
2021/09/28 07:03:44;;;;;;;5.37;4.87;;;12.20;99.90;12.10;97176.00;;;;5127847;27;20210;-65
2021/09/28 07:06:34;;;;;;;5.90;4.47;;;12.20;99.90;12.50;97172.00;;;;5126192;27;20206;-65
2021/09/28 07:09:22;;;;;;;6.57;4.97;;;12.40;99.90;12.70;97184.00;;;;5112073;27;20206;-65
2021/09/28 07:12:11;;;;;;;6.70;5.33;;;12.50;99.90;13.10;97182.00;;;;5127767;27;20225;-65
2021/09/28 07:15:00;;;;;;;7.93;5.00;;;12.70;99.90;13.50;97174.00;;;;5126617;27;20198;-65
2021/09/28 07:17:53;;;;;;;6.67;6.07;;;12.90;99.90;13.60;97177.00;;;;5115698;27;20226;-65
2021/09/28 07:20:42;;;;;;;8.27;6.33;;;13.20;99.90;13.90;97175.00;;;;5125411;27;20198;-65
2021/09/28 07:23:31;;;;;;;10.97;5.27;;;13.40;99.90;14.20;97184.00;;;;5127099;27;20210;-64
2021/09/28 07:26:20;;;;;;;7.17;5.70;;;13.60;99.90;14.40;97174.00;;;;5127445;27;20216;-65
2021/09/28 07:29:09;;;;;;;7.40;5.83;;;13.90;99.90;14.50;97178.00;;;;5107173;28;20669;-65
2021/09/28 07:31:58;;;;;;;8.87;6.10;;;14.10;99.90;14.60;97174.00;;;;5124091;27;20225;-65
2021/09/28 07:34:49;;;;;;;9.43;6.47;;;14.30;99.90;14.80;97173.00;;;;5120472;27;20206;-64
2021/09/28 07:37:38;;;;;;;8.77;5.87;;;14.50;99.90;15.00;97172.00;;;;5117146;27;20226;-64
2021/09/28 07:40:27;;;;;;;7.80;6.33;;;14.70;99.90;15.10;97168.00;;;;5113076;27;20205;-66
2021/09/28 07:43:16;;;;;;;7.53;5.37;;;14.80;99.90;15.20;97167.00;;;;5119681;27;20194;-65
2021/09/28 07:46:05;;;;;;;6.90;4.90;;;15.00;99.90;15.20;97174.00;;;;5114183;27;20205;-65
2021/09/28 07:48:54;;;;;;;7.60;4.97;;;15.10;99.90;15.40;97178.00;;;;5113691;27;20199;-65
2021/09/28 07:51:45;;;;;;;11.57;6.83;;;15.20;99.90;15.80;97184.00;;;;5112440;27;20233;-65
2021/09/28 07:54:35;;;;;;;11.70;6.53;;;15.40;99.90;16.10;97189.00;;;;5113295;27;20199;-64
2021/09/28 07:57:23;;;;;;;9.63;6.37;;;15.60;99.90;16.30;97183.00;;;;5122339;27;20206;-66
2021/09/28 08:00:15;;;;;;;17.07;9.13;;;15.80;99.90;16.50;97183.00;;;;5126541;27;20493;-66
2021/09/28 08:03:04;;;;;;;11.90;6.13;;;15.90;99.90;16.60;97175.00;;;;5124902;27;20653;-66
2021/09/28 08:05:53;;;;;;;8.23;5.27;;;16.10;99.90;16.90;97180.00;;;;5121154;27;20661;-67
2021/09/28 08:08:43;;;;;;;10.77;5.37;;;16.30;99.90;17.10;97185.00;;;;5105109;27;20609;-65
2021/09/28 08:11:32;;;;;;;9.23;6.33;;;16.50;99.90;17.40;97166.00;;;;5115896;27;20221;-66
2021/09/28 08:14:22;;;;;;;7.90;5.53;;;16.70;99.90;17.60;97181.00;;;;5113304;27;20205;-65
2021/09/28 08:17:10;;;;;;;11.43;6.87;;;16.90;99.90;17.90;97178.00;;;;5124031;27;20205;-65
2021/09/28 08:19:59;;;;;;;5.17;4.60;;;17.20;99.90;18.10;97183.00;;;;5111451;27;20210;-65
2021/09/28 08:22:48;;;;;;;7.87;5.10;;;17.40;99.90;18.20;97186.00;;;;5110414;27;20607;-65
2021/09/28 08:25:49;;;;;;;6.53;4.83;;;17.60;99.90;18.30;97185.00;;;;5126071;27;20205;-65
2021/09/28 08:31:47;;;;;;;7.70;5.27;;;18.00;99.90;18.70;97171.00;;;;5125655;28;20719;-65
2021/09/28 08:34:36;;;;;;;8.10;4.50;;;18.30;99.90;18.60;97183.00;;;;5121978;28;20199;-65
2021/09/28 08:37:26;;;;;;;8.67;5.00;;;18.40;99.90;18.90;97193.00;;;;5114471;28;20217;-66
2021/09/28 08:40:18;;;;;;;6.07;5.03;;;18.60;99.90;18.80;97192.00;;;;5125945;28;20232;-65
2021/09/28 08:43:09;;;;;;;7.03;4.60;;;18.60;99.90;19.20;97183.00;;;;5118071;28;20197;-65
2021/09/28 08:45:58;;;;;;;7.53;4.77;;;18.70;99.90;19.50;97191.00;;;;5118228;28;20197;-65
2021/09/28 08:48:49;;;;;;;14.63;4.60;;;18.90;99.90;19.80;97193.00;;;;5106500;28;20887;-66
2021/09/28 08:51:40;;;;;;;7.07;5.17;;;19.10;99.90;19.90;97190.00;;;;5110460;28;20233;-66
2021/09/28 08:54:29;;;;;;;8.43;4.50;;;19.20;99.90;20.00;97184.00;;;;5123929;28;20206;-66
2021/09/28 08:57:19;;;;;;;7.03;4.27;;;19.40;99.90;20.40;97191.00;;;;5120736;28;20217;-66
2021/09/28 09:00:26;;;;;;;10.00;4.93;;;19.60;99.90;20.70;97182.00;;;;5122832;28;20602;-66
2021/09/28 09:03:29;;;;;;;6.60;5.30;;;19.90;99.90;21.10;97181.00;;;;5113289;28;20200;-66
2021/09/28 09:06:19;;;;;;;6.43;4.23;;;20.20;99.90;21.20;97183.00;;;;5126323;28;20611;-66
2021/09/28 09:09:07;;;;;;;8.87;3.73;;;20.40;99.90;21.50;97175.00;;;;5111638;28;20668;-65
2021/09/28 09:11:59;;;;;;;5.77;3.20;;;20.60;99.90;21.90;97174.00;;;;5126252;28;20230;-66
2021/09/28 09:14:47;;;;;;;4.20;3.90;;;20.90;99.90;22.10;97170.00;;;;5126183;28;20251;-66
2021/09/28 09:17:39;;;;;;;4.87;3.23;;;21.20;99.90;22.50;97171.00;;;;5126319;28;20202;-65
2021/09/28 09:20:36;;;;;;;5.30;3.00;;;21.40;99.90;22.90;97169.00;;;;5121604;28;20202;-66
2021/09/28 09:23:28;;;;;;;4.50;3.47;;;21.80;99.90;23.20;97172.00;;;;5119940;28;20202;-66
2021/09/28 09:26:19;;;;;;;2.87;2.63;;;22.10;99.90;23.40;97160.00;;;;5114795;28;20202;-65
2021/09/28 09:29:14;;;;;;;3.27;2.33;;;22.40;99.90;23.90;97180.00;;;;5114005;28;20198;-66
2021/09/28 09:32:03;;;;;;;4.87;2.27;;;22.70;99.90;24.10;97161.00;;;;5126059;28;20879;-66
2021/09/28 09:34:55;;;;;;;3.10;2.43;;;23.00;99.90;24.10;97155.00;;;;5124614;28;20587;-65
2021/09/28 09:37:44;;;;;;;2.60;2.40;;;23.30;99.90;24.50;97153.00;;;;5126050;28;20540;-66
2021/09/28 09:40:36;;;;;;;3.17;2.57;;;23.50;99.90;24.40;97177.00;;;;5124263;27;20226;-66
2021/09/28 09:43:33;;;;;;;3.97;2.80;;;23.60;99.90;24.30;97175.00;;;;5124892;27;20205;-65
2021/09/28 09:46:22;;;;;;;3.40;2.60;;;23.70;99.90;23.80;97179.00;;;;5111395;27;20214;-65
2021/09/28 09:49:14;;;;;;;2.60;2.27;;;23.60;99.90;23.60;97147.00;;;;5128860;27;20299;-65
2021/09/28 09:52:09;;;;;;;3.13;2.77;;;23.50;99.90;24.60;97164.00;;;;5117100;27;20269;-65
2021/09/28 09:54:58;;;;;;;3.33;1.90;;;23.60;99.90;24.70;97155.00;;;;5128258;27;20202;-65
2021/09/28 09:57:47;;;;;;;7.70;2.50;;;23.80;99.90;25.30;97166.00;;;;5129306;27;20550;-65
2021/09/28 10:00:39;;;;;;;3.57;2.50;;;24.00;97.30;25.10;97178.00;;;;5128514;27;20578;-65
2021/09/28 10:03:28;;;;;;;3.00;2.50;;;24.20;96.90;24.70;97186.00;;;;5125316;27;20689;-65
2021/09/28 10:06:17;;;;;;;2.73;2.43;;;24.20;97.30;24.20;97187.00;;;;5121371;27;20208;-65
2021/09/28 10:09:13;;;;;;;2.60;2.27;;;24.10;96.20;24.20;97183.00;;;;5116920;27;20576;-65
2021/09/28 10:12:06;;;;;;;2.70;2.10;;;24.00;95.80;24.40;97187.00;;;;5112972;27;20249;-65
2021/09/28 10:15:07;;;;;;;2.97;2.67;;;23.90;95.90;25.00;97174.00;;;;5110815;27;20201;-65
2021/09/28 10:17:56;;;;;;;3.07;2.43;;;24.00;95.90;24.30;97180.00;;;;5118614;27;20208;-66
2021/09/28 10:20:47;;;;;;;1.57;1.47;;;24.10;94.40;23.40;97181.00;;;;5123924;27;20234;-66
2021/09/28 10:23:36;;;;;;;2.40;2.20;;;23.80;91.10;23.20;97182.00;;;;5117725;27;20198;-66
2021/09/28 10:26:26;;;;;;;2.50;2.33;;;23.60;92.30;23.60;97180.00;;;;5118278;27;20197;-65
2021/09/28 10:29:39;;;;;;;2.10;1.90;;;23.50;92.60;24.50;97192.00;;;;5125530;27;20201;-65
2021/09/28 10:32:59;;;;;;;2.27;2.00;;;23.60;93.10;24.10;97184.00;;;;5119175;27;20216;-65
2021/09/28 10:35:56;;;;;;;2.40;2.10;;;23.60;93.20;23.40;97191.00;;;;5057814;28;20204;-65
2021/09/28 10:39:00;;;;;;;2.13;1.90;;;23.50;92.50;23.20;97189.00;;;;5118204;27;20233;-65
2021/09/28 10:41:52;;;;;;;2.60;2.40;;;23.40;91.20;23.60;97191.00;;;;5120921;27;20214;-65
2021/09/28 10:44:41;;;;;;;2.57;2.03;;;23.30;92.60;23.80;97197.00;;;;5118277;27;20198;-65
2021/09/28 10:47:53;;;;;;;2.67;2.23;;;23.30;93.90;23.60;97190.00;;;;5121134;27;20280;-65
2021/09/28 10:50:43;;;;;;;3.27;2.77;;;23.30;94.70;23.50;97191.00;;;;5117897;27;20213;-65
2021/09/28 10:53:39;;;;;;;9.40;5.13;;;23.30;94.50;23.50;97191.00;;;;5116167;27;20214;-65
2021/09/28 10:56:31;;;;;;;5.37;3.17;;;23.20;94.80;23.50;97186.00;;;;5126849;27;20206;-64
2021/09/28 10:59:21;;;;;;;7.13;3.17;;;23.20;95.70;23.60;97189.00;;;;5126873;27;20756;-64
2021/09/28 11:02:10;;;;;;;2.37;2.17;;;23.20;96.60;24.10;97137.00;;;;5127291;27;20289;-65
2021/09/28 11:05:37;;;;;;;2.30;2.10;;;23.30;97.30;24.10;97201.00;;;;5118218;27;20208;-65
2021/09/28 11:08:31;;;;;;;5.27;2.53;;;23.50;96.20;24.00;97196.00;;;;5118919;27;20206;-65
2021/09/28 11:11:24;;;;;;;2.53;2.33;;;23.50;95.10;24.20;97187.00;;;;5126945;27;20227;-65
2021/09/28 11:14:13;;;;;;;8.73;3.60;;;23.60;95.00;25.70;97140.00;;;;5126009;27;20203;-66
2021/09/28 11:17:12;;;;;;;3.07;2.77;;;24.10;95.30;26.60;97164.00;;;;5127596;27;20683;-66
2021/09/28 11:20:02;;;;;;;3.30;2.10;;;24.70;95.60;25.90;97184.00;;;;5126956;27;20286;-66
2021/09/28 11:22:57;;;;;;;2.40;1.93;;;25.20;90.30;26.40;97138.00;;;;5126282;27;20675;-65
2021/09/28 11:25:51;;;;;;;3.30;2.07;;;25.50;85.40;27.40;97122.00;;;;5114542;27;20206;-67
2021/09/28 11:28:48;;;;;;;3.37;2.10;;;26.10;84.90;28.60;97131.00;;;;5127489;27;20205;-65
2021/09/28 11:31:39;;;;;;;2.22;2.03;;;26.90;83.80;28.70;97131.00;;;;5117158;27;20224;-65
2021/09/28 11:34:33;;;;;;;2.25;2.10;;;27.60;78.10;29.70;97119.00;;;;5124178;27;20609;-67
2021/09/28 11:37:42;;;;;;;2.60;2.08;;;28.10;77.00;29.50;97153.00;;;;5118480;27;20200;-67
2021/09/28 11:40:35;;;;;;;1.85;1.58;;;28.40;77.10;28.20;97187.00;;;;5109540;27;20221;-67
2021/09/28 11:43:28;;;;;;;2.33;2.00;;;28.40;69.00;26.50;97186.00;;;;5117470;27;20230;-67
2021/09/28 11:46:19;;;;;;;2.13;1.80;;;27.90;63.70;26.20;97180.00;;;;5119872;27;20213;-65
2021/09/28 11:49:11;;;;;;;1.77;1.67;;;27.30;63.70;25.40;97183.00;;;;5125190;27;20267;-65
2021/09/28 11:52:03;;;;;;;2.55;2.03;;;26.70;65.00;25.20;97180.00;;;;5111808;27;20255;-64
2021/09/28 11:54:53;;;;;;;2.20;2.10;;;26.10;65.90;25.10;97178.00;;;;5113973;27;20208;-65
2021/09/28 11:57:42;;;;;;;2.37;2.17;;;25.60;68.80;24.80;97183.00;;;;5123043;27;20209;-64
2021/09/28 12:00:32;;;;;;;2.27;2.03;;;25.30;69.30;24.50;97183.00;;;;5104904;28;20640;-64
2021/09/28 12:03:24;;;;;;;3.87;2.10;;;25.00;70.90;25.30;97122.00;;;;5104977;27;20581;-64
2021/09/28 12:06:26;;;;;;;3.00;1.67;;;25.00;71.10;27.00;97126.00;;;;5115126;27;20210;-65
2021/09/28 12:09:16;;;;;;;4.00;2.00;;;25.40;74.30;28.50;97125.00;;;;5122086;27;20205;-65
2021/09/28 12:12:08;;;;;;;2.03;1.83;;;26.20;76.40;29.00;97123.00;;;;5116507;27;20239;-66
2021/09/28 12:14:58;;;;;;;2.53;2.33;;;27.10;70.90;28.00;97113.00;;;;5120272;27;20663;-66
2021/09/28 12:17:48;;;;;;;3.15;1.80;;;27.50;64.80;29.80;97104.00;;;;5114227;28;20207;-64
2021/09/28 12:20:38;;;;;;;1.90;1.80;;;28.20;65.00;28.80;97105.00;;;;5119581;27;20226;-64
2021/09/28 12:23:27;;;;;;;2.67;2.03;;;28.50;60.90;28.30;97158.00;;;;5125665;27;20201;-64
2021/09/28 12:26:26;;;;;;;2.58;2.38;;;28.60;62.00;25.80;97166.00;;;;5114980;27;20227;-66
2021/09/28 12:29:20;;;;;;;2.22;2.03;;;27.80;60.40;24.60;97177.00;;;;5115482;27;20271;-66
2021/09/28 12:32:09;;;;;;;3.17;2.22;;;26.50;62.20;24.70;97170.00;;;;5122018;27;20220;-65
2021/09/28 12:35:01;;;;;;;2.53;2.33;;;25.70;63.70;25.40;97145.00;;;;5119401;28;20205;-64
2021/09/28 12:37:56;;;;;;;2.10;2.00;;;25.40;65.60;25.30;97167.00;;;;5120970;28;20217;-65
2021/09/28 12:40:45;;;;;;;2.30;2.10;;;25.20;66.90;24.90;97161.00;;;;5110748;28;20736;-65
2021/09/28 12:43:37;;;;;;;2.47;2.27;;;25.20;65.50;25.20;97166.00;;;;5118476;28;20673;-65